Time;durP1;ratioP1;P1;durP2;ratioP2;P2;SDS_P1;SDS_P2;PMS_P1;PMS_P2;Temp;Humidity;BMP_temperature;BMP_pressure;BME280_temperature;BME280_humidity;BME280_pressure;Samples;Min_cycle;Max_cycle;Signal;HPM_P1;HPM_P2
2021/12/25 00:00:51;;;;;;;2.67;2.10;;;;;;;;;;5068148;28;20052;-57
2021/12/25 00:03:17;;;;;;;2.65;2.22;;;;;;;;;;5068260;28;20032;-57
2021/12/25 00:05:44;;;;;;;3.67;2.72;;;;;;;;;;5067440;28;20116;-57
2021/12/25 00:08:10;;;;;;;3.60;2.75;;;;;;;;;;5067859;28;20674;-57
2021/12/25 00:10:36;;;;;;;3.70;2.55;;;;;;;;;;5068166;28;20029;-57
2021/12/25 00:13:02;;;;;;;4.45;2.90;;;;;;;;;;5068047;28;20503;-57
2021/12/25 00:15:28;;;;;;;3.30;2.47;;;;;;;;;;5050731;28;20040;-57
2021/12/25 00:17:54;;;;;;;4.22;3.25;;;;;;;;;;5067941;28;20107;-57
2021/12/25 00:20:20;;;;;;;3.28;2.53;;;;;;;;;;5065990;28;20021;-57
2021/12/25 00:22:46;;;;;;;3.47;2.40;;;;;;;;;;5067696;28;20404;-57
2021/12/25 00:25:13;;;;;;;4.68;2.85;;;;;;;;;;5065835;28;20467;-57
2021/12/25 00:28:05;;;;;;;3.03;2.40;;;;;;;;;;5066984;28;20051;-57
2021/12/25 00:33:30;;;;;;;3.08;2.38;;;;;;;;;;5067657;28;20028;-57
2021/12/25 00:35:41;;;;;;;3.83;2.88;;;;;;;;;;5065922;28;20427;-57
2021/12/25 00:38:07;;;;;;;3.45;2.40;;;;;;;;;;5066175;28;20071;-57
2021/12/25 00:40:33;;;;;;;2.85;2.33;;;;;;;;;;5067178;28;20745;-57
2021/12/25 00:42:59;;;;;;;3.55;2.50;;;;;;;;;;5067838;28;20029;-57
2021/12/25 00:45:25;;;;;;;4.32;2.60;;;;;;;;;;5067138;28;20082;-57
2021/12/25 00:47:51;;;;;;;2.97;2.42;;;;;;;;;;5067390;28;20666;-57
2021/12/25 00:50:17;;;;;;;2.78;2.20;;;;;;;;;;5065983;28;20488;-57
2021/12/25 00:52:43;;;;;;;3.13;2.58;;;;;;;;;;5066980;28;20032;-57
2021/12/25 00:55:10;;;;;;;3.42;2.47;;;;;;;;;;5067066;28;20025;-57
2021/12/25 00:57:37;;;;;;;3.47;2.70;;;;;;;;;;5067074;28;20032;-57
2021/12/25 01:00:09;;;;;;;3.40;2.35;;;;;;;;;;5066765;28;20024;-57
2021/12/25 01:02:35;;;;;;;2.75;2.35;;;;;;;;;;5067076;28;20033;-57
2021/12/25 01:05:01;;;;;;;3.22;2.53;;;;;;;;;;5066145;28;20025;-57
2021/12/25 01:07:27;;;;;;;2.65;2.20;;;;;;;;;;5067212;28;20025;-57
2021/12/25 01:09:54;;;;;;;3.05;2.13;;;;;;;;;;5066759;28;20063;-57
2021/12/25 01:12:20;;;;;;;3.33;2.53;;;;;;;;;;5066239;28;20024;-57
2021/12/25 01:14:52;;;;;;;3.03;2.42;;;;;;;;;;5066696;28;20027;-57
2021/12/25 01:20:34;;;;;;;4.47;2.83;;;;;;;;;;5064979;28;20039;-57
2021/12/25 01:36:27;;;;;;;4.45;2.78;;;;;;;;;;5065496;28;20392;-57
2021/12/25 01:49:41;;;;;;;3.95;2.75;;;;;;;;;;5043635;28;20033;-57
2021/12/25 01:52:07;;;;;;;3.55;2.67;;;;;;;;;;5061137;28;20036;-57
2021/12/25 01:54:33;;;;;;;3.65;2.70;;;;;;;;;;5066283;28;20435;-57
2021/12/25 01:57:00;;;;;;;3.30;2.53;;;;;;;;;;5066920;28;20021;-57
2021/12/25 01:59:26;;;;;;;3.53;2.55;;;;;;;;;;5065756;28;20028;-57
2021/12/25 02:01:52;;;;;;;4.47;2.85;;;;;;;;;;5065265;28;20032;-57
2021/12/25 02:04:18;;;;;;;4.18;2.60;;;;;;;;;;5065896;28;20031;-57
2021/12/25 02:06:44;;;;;;;2.78;2.25;;;;;;;;;;5065278;28;20509;-57
2021/12/25 02:09:10;;;;;;;4.35;2.88;;;;;;;;;;5065484;28;20037;-57
2021/12/25 02:11:37;;;;;;;3.60;2.55;;;;;;;;;;5064399;28;20021;-57
2021/12/25 02:14:03;;;;;;;4.30;2.83;;;;;;;;;;5066106;28;20515;-57
2021/12/25 02:16:39;;;;;;;3.22;2.40;;;;;;;;;;5066788;28;20035;-57
2021/12/25 02:19:11;;;;;;;3.17;2.42;;;;;;;;;;5065712;28;20063;-57
2021/12/25 02:21:39;;;;;;;4.00;2.60;;;;;;;;;;5065854;28;20013;-57
2021/12/25 02:24:06;;;;;;;3.22;2.53;;;;;;;;;;5065488;28;20518;-57
2021/12/25 02:26:33;;;;;;;3.40;2.53;;;;;;;;;;5065230;28;20490;-57
2021/12/25 02:28:59;;;;;;;3.40;2.67;;;;;;;;;;5066678;28;20033;-57
2021/12/25 02:31:25;;;;;;;4.43;2.92;;;;;;;;;;5065153;28;20033;-57
2021/12/25 02:33:52;;;;;;;3.85;2.88;;;;;;;;;;5047666;28;20522;-57
2021/12/25 02:36:18;;;;;;;3.85;2.90;;;;;;;;;;5064809;28;20017;-57
2021/12/25 02:38:45;;;;;;;3.65;2.50;;;;;;;;;;5065598;28;20033;-57
2021/12/25 02:41:11;;;;;;;4.82;2.85;;;;;;;;;;5065473;28;20495;-57
2021/12/25 02:43:37;;;;;;;3.60;2.63;;;;;;;;;;5065886;28;20540;-57
2021/12/25 02:46:05;;;;;;;4.28;3.17;;;;;;;;;;5065116;28;20487;-57
2021/12/25 02:48:32;;;;;;;4.22;2.83;;;;;;;;;;5066475;28;20399;-57
2021/12/25 02:50:59;;;;;;;4.82;3.03;;;;;;;;;;5069748;28;20024;-57
2021/12/25 02:53:25;;;;;;;4.15;3.30;;;;;;;;;;5069097;28;20499;-57
2021/12/25 02:55:51;;;;;;;4.50;3.38;;;;;;;;;;5067903;28;20062;-57
2021/12/25 02:58:20;;;;;;;3.85;2.83;;;;;;;;;;5068315;28;20032;-57
2021/12/25 03:00:50;;;;;;;4.03;3.13;;;;;;;;;;5069310;28;20407;-57
2021/12/25 03:03:17;;;;;;;5.30;3.35;;;;;;;;;;5069158;28;20032;-57
2021/12/25 03:05:43;;;;;;;4.32;3.03;;;;;;;;;;5068123;28;20036;-57
2021/12/25 03:08:11;;;;;;;5.40;3.67;;;;;;;;;;5068943;28;20036;-57
2021/12/25 03:10:38;;;;;;;4.28;3.22;;;;;;;;;;5069130;28;20024;-57
2021/12/25 03:13:17;;;;;;;3.65;2.85;;;;;;;;;;5069049;28;20507;-57
2021/12/25 03:15:47;;;;;;;4.95;3.47;;;;;;;;;;5069178;28;20021;-57
2021/12/25 03:18:17;;;;;;;4.90;3.47;;;;;;;;;;5068865;28;20036;-57
2021/12/25 03:20:44;;;;;;;4.45;3.22;;;;;;;;;;5067934;28;20032;-57
2021/12/25 03:23:12;;;;;;;4.20;2.90;;;;;;;;;;5050780;28;20494;-57
2021/12/25 03:25:38;;;;;;;4.88;3.28;;;;;;;;;;5069072;28;20028;-57
2021/12/25 03:28:04;;;;;;;4.20;2.78;;;;;;;;;;5068760;28;20078;-57
2021/12/25 03:30:36;;;;;;;4.78;3.13;;;;;;;;;;5067897;28;20086;-57
2021/12/25 03:33:02;;;;;;;4.55;3.20;;;;;;;;;;5068779;28;20032;-57
2021/12/25 03:35:28;;;;;;;3.28;2.65;;;;;;;;;;5069268;28;20100;-57
2021/12/25 03:37:54;;;;;;;3.65;2.78;;;;;;;;;;5068751;28;20190;-57
2021/12/25 03:40:20;;;;;;;4.70;2.92;;;;;;;;;;5068373;28;20084;-57
2021/12/25 03:42:46;;;;;;;3.63;2.83;;;;;;;;;;5068635;28;20535;-57
2021/12/25 03:45:13;;;;;;;4.53;3.25;;;;;;;;;;5067404;28;20115;-57
2021/12/25 03:47:40;;;;;;;4.43;3.05;;;;;;;;;;5068553;28;20097;-57
2021/12/25 03:58:41;;;;;;;4.47;3.38;;;;;;;;;;5026031;28;20044;-57
2021/12/25 04:06:45;;;;;;;5.18;3.47;;;;;;;;;;5068173;28;20042;-57
2021/12/25 04:09:21;;;;;;;5.07;3.50;;;;;;;;;;5068037;28;20107;-57
2021/12/25 04:11:47;;;;;;;4.82;3.17;;;;;;;;;;5068122;28;20017;-57
2021/12/25 04:14:13;;;;;;;4.55;3.00;;;;;;;;;;5067218;28;20039;-57
2021/12/25 04:16:39;;;;;;;4.38;3.10;;;;;;;;;;5067843;28;20598;-57
2021/12/25 04:19:05;;;;;;;4.05;3.10;;;;;;;;;;5067666;28;20036;-57
2021/12/25 04:21:32;;;;;;;3.65;2.50;;;;;;;;;;5067855;28;20062;-57
2021/12/25 04:23:58;;;;;;;4.53;2.78;;;;;;;;;;5068033;28;20037;-57
2021/12/25 04:26:25;;;;;;;4.60;3.00;;;;;;;;;;5066983;28;20085;-57
2021/12/25 04:48:01;;;;;;;;;;;;;;;;;;5068067;28;20052;-57
2021/12/25 05:04:03;;;;;;;;;;;;;;;;;;5067366;28;20048;-57
2021/12/25 05:06:29;;;;;;;3.60;2.87;;;;;;;;;;5067628;28;19905;-57
2021/12/25 05:08:56;;;;;;;5.28;3.20;;;;;;;;;;5065812;28;20032;-57
2021/12/25 05:11:23;;;;;;;5.40;3.67;;;;;;;;;;5066325;28;20103;-57
2021/12/25 05:13:50;;;;;;;3.92;2.67;;;;;;;;;;5066415;28;20029;-57
2021/12/25 05:16:20;;;;;;;3.80;2.88;;;;;;;;;;5066642;28;20025;-57
2021/12/25 05:18:46;;;;;;;4.10;3.00;;;;;;;;;;5047945;28;20029;-57
2021/12/25 05:21:15;;;;;;;4.55;2.90;;;;;;;;;;5066410;28;20104;-57
2021/12/25 05:23:41;;;;;;;3.90;2.90;;;;;;;;;;5066790;28;20028;-57
2021/12/25 05:26:08;;;;;;;3.50;2.58;;;;;;;;;;5066401;28;20105;-57
2021/12/25 05:28:42;;;;;;;3.35;2.28;;;;;;;;;;5066588;28;20025;-57
2021/12/25 05:31:12;;;;;;;3.33;2.17;;;;;;;;;;5066015;28;20028;-57
2021/12/25 05:33:39;;;;;;;4.03;2.65;;;;;;;;;;5065504;28;20028;-57
2021/12/25 05:36:05;;;;;;;2.95;1.98;;;;;;;;;;5066007;28;20105;-57
2021/12/25 05:38:33;;;;;;;3.08;2.25;;;;;;;;;;5066467;28;20037;-57
2021/12/25 05:40:59;;;;;;;2.95;2.10;;;;;;;;;;5067089;28;20048;-57
2021/12/25 05:43:25;;;;;;;3.60;2.78;;;;;;;;;;5066420;28;20024;-57
2021/12/25 05:45:52;;;;;;;2.67;2.15;;;;;;;;;;5066659;28;20121;-57
2021/12/25 05:48:18;;;;;;;4.30;2.42;;;;;;;;;;5065229;28;20062;-57
2021/12/25 05:50:44;;;;;;;3.50;2.55;;;;;;;;;;5046293;28;20126;-57
2021/12/25 05:53:10;;;;;;;4.05;2.80;;;;;;;;;;5046075;28;20155;-57
2021/12/25 05:55:36;;;;;;;4.28;2.95;;;;;;;;;;5046453;28;20051;-57
2021/12/25 05:58:03;;;;;;;3.17;2.20;;;;;;;;;;5046343;28;20032;-57
2021/12/25 06:00:30;;;;;;;5.00;2.90;;;;;;;;;;5046944;28;20025;-57
2021/12/25 06:02:57;;;;;;;3.10;2.05;;;;;;;;;;5046807;28;20033;-57
2021/12/25 06:05:23;;;;;;;3.63;2.70;;;;;;;;;;5065341;28;20129;-57
2021/12/25 06:07:49;;;;;;;2.90;2.40;;;;;;;;;;5066196;28;20029;-57
2021/12/25 06:10:15;;;;;;;4.55;2.53;;;;;;;;;;5066104;28;20032;-57
2021/12/25 06:12:43;;;;;;;3.63;2.60;;;;;;;;;;5066364;28;20016;-57
2021/12/25 06:15:11;;;;;;;3.70;2.70;;;;;;;;;;5064751;28;20035;-57
2021/12/25 06:17:37;;;;;;;3.58;2.75;;;;;;;;;;5066147;28;20365;-57
2021/12/25 06:20:04;;;;;;;3.33;2.63;;;;;;;;;;5065791;28;20082;-57
2021/12/25 06:22:30;;;;;;;3.97;2.80;;;;;;;;;;5065042;28;20086;-57
2021/12/25 06:24:56;;;;;;;3.58;2.55;;;;;;;;;;5069979;28;20041;-57
2021/12/25 06:27:22;;;;;;;4.18;2.65;;;;;;;;;;5069706;28;20112;-57
2021/12/25 06:29:49;;;;;;;4.03;2.63;;;;;;;;;;5068606;28;20466;-57
2021/12/25 06:32:16;;;;;;;4.53;3.00;;;;;;;;;;5069338;28;20078;-57
2021/12/25 06:34:42;;;;;;;3.50;2.75;;;;;;;;;;5069726;28;20036;-57
2021/12/25 06:37:08;;;;;;;3.53;2.65;;;;;;;;;;5069289;28;20053;-57
2021/12/25 06:39:34;;;;;;;3.72;2.83;;;;;;;;;;5069544;28;20033;-57
2021/12/25 06:42:01;;;;;;;4.07;2.85;;;;;;;;;;5069623;28;20103;-57
2021/12/25 06:44:27;;;;;;;3.70;2.55;;;;;;;;;;5067143;28;20076;-57
2021/12/25 06:46:53;;;;;;;3.70;2.75;;;;;;;;;;5069864;28;20559;-57
2021/12/25 06:49:20;;;;;;;3.25;2.50;;;;;;;;;;5069537;28;20060;-56
2021/12/25 06:51:46;;;;;;;4.93;2.83;;;;;;;;;;5068765;28;20037;-57
2021/12/25 06:54:13;;;;;;;3.92;2.90;;;;;;;;;;5069151;28;20032;-57
2021/12/25 06:56:39;;;;;;;4.63;3.28;;;;;;;;;;5069177;28;20024;-57
2021/12/25 06:59:06;;;;;;;5.25;3.30;;;;;;;;;;5069038;28;20032;-57
2021/12/25 07:01:32;;;;;;;4.40;3.25;;;;;;;;;;5068079;28;20028;-57
2021/12/25 07:03:58;;;;;;;5.85;3.55;;;;;;;;;;5068538;28;20027;-57
2021/12/25 07:06:24;;;;;;;5.90;3.92;;;;;;;;;;5068385;28;20036;-57
2021/12/25 07:08:50;;;;;;;5.88;3.88;;;;;;;;;;5069787;28;20020;-57
2021/12/25 07:11:18;;;;;;;5.72;3.78;;;;;;;;;;5068685;28;20132;-57
2021/12/25 07:13:46;;;;;;;4.97;3.50;;;;;;;;;;5069073;28;20021;-57
2021/12/25 07:16:12;;;;;;;5.63;3.95;;;;;;;;;;5068131;28;20040;-57
2021/12/25 07:18:38;;;;;;;5.32;3.70;;;;;;;;;;5068143;28;20021;-57
2021/12/25 07:21:05;;;;;;;6.13;4.10;;;;;;;;;;5067960;28;20056;-57
2021/12/25 07:23:32;;;;;;;4.93;3.55;;;;;;;;;;5069550;28;20033;-57
2021/12/25 07:25:59;;;;;;;5.95;4.15;;;;;;;;;;5080108;28;20058;-57
2021/12/25 07:28:25;;;;;;;7.25;4.32;;;;;;;;;;5068294;28;20036;-57
2021/12/25 07:30:51;;;;;;;5.90;4.15;;;;;;;;;;5068082;28;20085;-57
2021/12/25 07:33:20;;;;;;;6.03;3.80;;;;;;;;;;5068397;28;20483;-57
2021/12/25 07:35:46;;;;;;;6.57;4.38;;;;;;;;;;5068109;28;20025;-57
2021/12/25 07:38:12;;;;;;;5.32;3.63;;;;;;;;;;5066172;28;20043;-57
2021/12/25 07:40:39;;;;;;;6.65;4.32;;;;;;;;;;5068560;28;20025;-57
2021/12/25 07:43:05;;;;;;;7.50;4.32;;;;;;;;;;5068257;28;20391;-57
2021/12/25 07:45:31;;;;;;;7.13;4.10;;;;;;;;;;5068767;28;20036;-57
2021/12/25 07:48:00;;;;;;;6.55;4.05;;;;;;;;;;5068258;28;20056;-57
2021/12/25 07:50:27;;;;;;;6.85;4.30;;;;;;;;;;5063227;28;20032;-57
2021/12/25 07:52:54;;;;;;;5.15;4.20;;;;;;;;;;5048977;28;20036;-57
2021/12/25 07:55:20;;;;;;;5.60;4.13;;;;;;;;;;5048610;28;20032;-57
2021/12/25 07:57:46;;;;;;;6.35;4.25;;;;;;;;;;5048219;28;20017;-57
2021/12/25 08:00:14;;;;;;;6.50;4.75;;;;;;;;;;5060542;28;20514;-57
2021/12/25 08:02:42;;;;;;;7.07;4.60;;;;;;;;;;5065747;28;20222;-57
2021/12/25 08:05:08;;;;;;;6.05;4.30;;;;;;;;;;5060353;28;20024;-57
2021/12/25 08:07:34;;;;;;;6.90;4.55;;;;;;;;;;5065384;28;20021;-57
2021/12/25 08:10:13;;;;;;;6.20;4.40;;;;;;;;;;5069433;28;20037;-57
2021/12/25 08:12:55;;;;;;;5.70;4.07;;;;;;;;;;5067362;28;20025;-57
2021/12/25 08:15:22;;;;;;;7.53;4.75;;;;;;;;;;5068090;28;20032;-57
2021/12/25 08:17:48;;;;;;;6.60;4.25;;;;;;;;;;5066875;28;20404;-57
2021/12/25 08:20:14;;;;;;;7.88;4.75;;;;;;;;;;5066032;28;20404;-58
2021/12/25 08:22:40;;;;;;;6.47;4.43;;;;;;;;;;5068182;28;20407;-58
2021/12/25 08:25:07;;;;;;;6.10;4.22;;;;;;;;;;5065535;28;20108;-58
2021/12/25 08:27:34;;;;;;;6.70;4.72;;;;;;;;;;5067417;28;20083;-57
2021/12/25 08:30:00;;;;;;;7.57;4.75;;;;;;;;;;5067064;28;20025;-57
2021/12/25 08:32:26;;;;;;;7.50;4.53;;;;;;;;;;5067051;28;20028;-58
2021/12/25 08:34:53;;;;;;;7.32;4.97;;;;;;;;;;5067428;28;20032;-57
2021/12/25 08:37:22;;;;;;;6.18;4.57;;;;;;;;;;5067233;28;20028;-57
2021/12/25 08:39:49;;;;;;;7.10;4.95;;;;;;;;;;5066533;28;20028;-57
2021/12/25 08:42:15;;;;;;;6.85;5.03;;;;;;;;;;5066770;28;20772;-57
2021/12/25 08:44:53;;;;;;;6.57;4.72;;;;;;;;;;5067627;28;20021;-58
2021/12/25 08:47:20;;;;;;;5.55;4.18;;;;;;;;;;5064816;28;20013;-58
2021/12/25 08:49:46;;;;;;;7.82;4.85;;;;;;;;;;5067301;28;20033;-57
2021/12/25 08:52:14;;;;;;;7.28;4.82;;;;;;;;;;5067018;28;20020;-57
2021/12/25 08:54:40;;;;;;;6.25;4.05;;;;;;;;;;5069260;28;20056;-57
2021/12/25 08:57:07;;;;;;;6.07;4.20;;;;;;;;;;5067082;28;20032;-57
2021/12/25 08:59:34;;;;;;;6.78;4.82;;;;;;;;;;5067654;28;20066;-57
2021/12/25 09:02:05;;;;;;;6.30;3.97;;;;;;;;;;5066730;28;20020;-58
2021/12/25 09:04:31;;;;;;;6.30;4.10;;;;;;;;;;5066942;28;20484;-58
2021/12/25 09:06:57;;;;;;;6.95;4.53;;;;;;;;;;5066783;28;20086;-57
2021/12/25 09:09:30;;;;;;;8.18;4.63;;;;;;;;;;5123695;27;20390;-58
2021/12/25 09:11:56;;;;;;;5.82;4.03;;;;;;;;;;5108217;28;20059;-57
2021/12/25 09:14:23;;;;;;;6.45;4.43;;;;;;;;;;5102148;28;20072;-57
2021/12/25 09:16:49;;;;;;;6.10;4.00;;;;;;;;;;5103237;28;20030;-57
2021/12/25 09:19:15;;;;;;;6.45;4.20;;;;;;;;;;5102368;28;20099;-57
2021/12/25 09:21:41;;;;;;;6.25;4.03;;;;;;;;;;5103809;28;20077;-57
2021/12/25 09:24:08;;;;;;;5.30;4.13;;;;;;;;;;5103799;28;20032;-57
2021/12/25 09:26:34;;;;;;;6.40;3.90;;;;;;;;;;5104185;28;20034;-57
2021/12/25 09:29:00;;;;;;;7.10;4.68;;;;;;;;;;5102553;28;20102;-57
2021/12/25 09:31:26;;;;;;;6.03;4.10;;;;;;;;;;5083810;28;20569;-57
2021/12/25 09:33:53;;;;;;;6.78;4.13;;;;;;;;;;5103072;28;20054;-57
2021/12/25 09:36:20;;;;;;;6.25;4.10;;;;;;;;;;5103306;28;20132;-56
2021/12/25 09:38:46;;;;;;;5.57;3.75;;;;;;;;;;5103183;28;20028;-57
2021/12/25 09:41:12;;;;;;;6.43;4.10;;;;;;;;;;5100308;28;20039;-57
2021/12/25 09:43:39;;;;;;;6.05;3.55;;;;;;;;;;5103651;28;20035;-56
2021/12/25 09:46:06;;;;;;;5.95;4.10;;;;;;;;;;5092433;28;20132;-58
2021/12/25 09:48:33;;;;;;;5.35;3.65;;;;;;;;;;5108215;28;20114;-57
2021/12/25 09:50:59;;;;;;;5.30;3.45;;;;;;;;;;5101470;28;20114;-58
2021/12/25 09:53:27;;;;;;;6.45;4.22;;;;;;;;;;5102653;28;20019;-58
2021/12/25 09:55:53;;;;;;;5.70;3.65;;;;;;;;;;5102373;28;20027;-58
2021/12/25 09:58:20;;;;;;;5.95;3.85;;;;;;;;;;5102316;28;20077;-58
2021/12/25 10:00:47;;;;;;;6.03;4.25;;;;;;;;;;5101740;28;20035;-58
2021/12/25 10:03:13;;;;;;;6.88;4.32;;;;;;;;;;5102336;28;20032;-58
2021/12/25 10:05:43;;;;;;;6.95;4.32;;;;;;;;;;5101463;28;20647;-58
2021/12/25 10:08:13;;;;;;;5.70;3.67;;;;;;;;;;5102790;28;20032;-58
2021/12/25 10:10:41;;;;;;;4.80;3.63;;;;;;;;;;5102782;28;20094;-58
2021/12/25 10:13:18;;;;;;;5.63;3.83;;;;;;;;;;5097729;28;20091;-58
2021/12/25 10:15:44;;;;;;;5.82;3.78;;;;;;;;;;5105989;28;20028;-58
2021/12/25 10:18:10;;;;;;;6.13;3.53;;;;;;;;;;5100432;28;20028;-58
2021/12/25 10:20:36;;;;;;;4.90;3.45;;;;;;;;;;5093339;28;20507;-58
2021/12/25 10:23:08;;;;;;;5.18;3.35;;;;;;;;;;5087715;28;20028;-58
2021/12/25 10:25:55;;;;;;;4.97;3.03;;;;;;;;;;5087247;28;20064;-58
2021/12/25 10:28:35;;;;;;;4.18;2.92;;;;;;;;;;5086225;28;20035;-58
2021/12/25 10:31:01;;;;;;;5.07;3.22;;;;;;;;;;5069325;28;20046;-58
2021/12/25 10:33:30;;;;;;;5.00;3.20;;;;;;;;;;5095464;28;20496;-58
2021/12/25 10:35:58;;;;;;;5.25;3.47;;;;;;;;;;5088809;28;20036;-58
2021/12/25 10:38:24;;;;;;;5.85;3.42;;;;;;;;;;5087901;28;20101;-58
2021/12/25 10:40:51;;;;;;;3.90;3.03;;;;;;;;;;5088821;28;20140;-58
2021/12/25 10:43:21;;;;;;;4.03;3.17;;;;;;;;;;5086815;28;20035;-59
2021/12/25 10:46:01;;;;;;;5.63;3.40;;;;;;;;;;5083532;28;20039;-58
2021/12/25 10:48:28;;;;;;;4.20;3.17;;;;;;;;;;5085993;28;20030;-58
2021/12/25 10:50:54;;;;;;;4.95;3.17;;;;;;;;;;5087140;28;20043;-58
2021/12/25 10:53:37;;;;;;;3.97;2.90;;;;;;;;;;5088673;28;20016;-58
2021/12/25 10:56:16;;;;;;;4.40;3.47;;;;;;;;;;5088002;28;20024;-59
2021/12/25 10:58:43;;;;;;;4.82;3.35;;;;;;;;;;5087784;28;20137;-59
2021/12/25 11:01:13;;;;;;;5.15;3.50;;;;;;;;;;5085574;28;20028;-59
2021/12/25 11:03:40;;;;;;;4.72;3.33;;;;;;;;;;5088129;28;20024;-59
2021/12/25 11:06:07;;;;;;;5.13;3.40;;;;;;;;;;5105012;28;20072;-59
2021/12/25 11:08:34;;;;;;;5.35;3.67;;;;;;;;;;5105743;28;20062;-59
2021/12/25 11:11:03;;;;;;;5.25;3.38;;;;;;;;;;5108330;28;20669;-59
2021/12/25 11:13:29;;;;;;;4.68;3.38;;;;;;;;;;5103706;28;20359;-59
2021/12/25 11:16:03;;;;;;;5.45;3.45;;;;;;;;;;5085138;28;20032;-58
2021/12/25 11:18:29;;;;;;;;;;;;;;;;;;5078630;28;20517;-59
2021/12/25 11:20:55;;;;;;;4.55;3.33;;;;;;;;;;5097061;28;19915;-57
2021/12/25 11:23:21;;;;;;;5.63;3.70;;;;;;;;;;5086752;28;20028;-58
2021/12/25 11:25:47;;;;;;;4.88;3.80;;;;;;;;;;5083433;28;20406;-58
2021/12/25 11:28:18;;;;;;;7.05;3.95;;;;;;;;;;5084489;28;20039;-59
2021/12/25 11:30:47;;;;;;;5.70;3.85;;;;;;;;;;5086073;28;20081;-56
2021/12/25 11:33:13;;;;;;;7.43;4.57;;;;;;;;;;5086435;28;20031;-57
2021/12/25 11:35:40;;;;;;;6.43;4.15;;;;;;;;;;5086225;28;20028;-57
2021/12/25 11:38:08;;;;;;;5.22;3.63;;;;;;;;;;5086431;28;20592;-56
2021/12/25 11:40:38;;;;;;;6.88;4.63;;;;;;;;;;5086772;28;20574;-56
2021/12/25 11:43:05;;;;;;;4.80;3.55;;;;;;;;;;5084829;28;20364;-58
2021/12/25 11:45:34;;;;;;;5.55;3.65;;;;;;;;;;5086141;28;20103;-58
2021/12/25 11:48:01;;;;;;;5.45;3.55;;;;;;;;;;5087538;28;20115;-58
2021/12/25 11:50:40;;;;;;;4.22;3.10;;;;;;;;;;5086576;28;20020;-58
2021/12/25 11:53:16;;;;;;;4.63;3.13;;;;;;;;;;5086528;28;20388;-58
2021/12/25 12:00:46;;;;;;;3.65;2.70;;;;;;;;;;5089745;28;20465;-57
2021/12/25 12:03:33;;;;;;;4.50;2.97;;;;;;;;;;5068447;28;20380;-58
2021/12/25 12:05:59;;;;;;;3.97;2.88;;;;;;;;;;5070210;28;20058;-58
2021/12/25 12:08:25;;;;;;;5.18;3.05;;;;;;;;;;5084871;28;20471;-58
2021/12/25 12:10:52;;;;;;;4.15;2.83;;;;;;;;;;5087440;28;20365;-58
2021/12/25 12:13:18;;;;;;;4.57;2.65;;;;;;;;;;5085455;28;20032;-58
2021/12/25 12:15:48;;;;;;;3.55;2.60;;;;;;;;;;5083709;28;20031;-58
2021/12/25 12:18:23;;;;;;;4.63;2.80;;;;;;;;;;5083716;28;20123;-58
2021/12/25 12:20:49;;;;;;;3.83;3.00;;;;;;;;;;5085105;28;20131;-58
2021/12/25 12:26:08;;;;;;;6.32;3.00;;;;;;;;;;5088991;28;20077;-59
2021/12/25 12:28:43;;;;;;;4.78;3.15;;;;;;;;;;5084727;28;20028;-58
2021/12/25 12:31:29;;;;;;;4.40;2.83;;;;;;;;;;5083770;28;20066;-59
2021/12/25 12:33:55;;;;;;;4.10;2.65;;;;;;;;;;5084893;28;20020;-58
2021/12/25 12:36:23;;;;;;;4.20;2.55;;;;;;;;;;5084775;28;20024;-58
2021/12/25 12:38:53;;;;;;;3.58;2.70;;;;;;;;;;5088809;28;20070;-58
2021/12/25 12:41:24;;;;;;;4.80;2.88;;;;;;;;;;5084482;28;20259;-58
2021/12/25 12:43:52;;;;;;;4.70;2.70;;;;;;;;;;5085196;28;20028;-58
2021/12/25 12:46:19;;;;;;;4.28;3.00;;;;;;;;;;5085168;28;20035;-58
2021/12/25 12:49:04;;;;;;;5.18;2.80;;;;;;;;;;5084656;28;21806;-59
2021/12/25 12:51:30;;;;;;;4.05;2.60;;;;;;;;;;5088765;28;20027;-59
2021/12/25 12:53:56;;;;;;;3.28;2.53;;;;;;;;;;5086031;28;20028;-59
2021/12/25 12:56:22;;;;;;;3.25;2.00;;;;;;;;;;5084637;28;20027;-58
2021/12/25 12:58:53;;;;;;;3.15;2.33;;;;;;;;;;5083867;28;20067;-57
2021/12/25 13:01:19;;;;;;;3.35;2.13;;;;;;;;;;5085741;28;20578;-58
2021/12/25 13:03:46;;;;;;;2.83;2.33;;;;;;;;;;5086000;28;20062;-57
2021/12/25 13:06:14;;;;;;;3.03;2.00;;;;;;;;;;5086618;28;20418;-57
2021/12/25 13:08:42;;;;;;;3.30;2.00;;;;;;;;;;5084628;28;20073;-58
2021/12/25 13:11:28;;;;;;;3.65;2.42;;;;;;;;;;5084052;28;20186;-58
2021/12/25 13:13:58;;;;;;;2.75;1.90;;;;;;;;;;5083430;28;20111;-58
2021/12/25 13:16:28;;;;;;;3.38;2.20;;;;;;;;;;5083598;28;20024;-58
2021/12/25 13:18:55;;;;;;;3.70;2.30;;;;;;;;;;5083871;28;20020;-58
2021/12/25 13:21:26;;;;;;;3.70;2.22;;;;;;;;;;5084132;28;20035;-58
2021/12/25 13:23:56;;;;;;;3.50;2.20;;;;;;;;;;5084016;28;20406;-58
2021/12/25 13:26:26;;;;;;;2.78;2.00;;;;;;;;;;5084003;28;20063;-57
2021/12/25 13:28:52;;;;;;;3.08;2.25;;;;;;;;;;5083266;28;20024;-58
2021/12/25 13:31:20;;;;;;;3.92;2.47;;;;;;;;;;5088033;28;20058;-58
2021/12/25 13:33:47;;;;;;;2.35;1.90;;;;;;;;;;5087308;28;20020;-58
2021/12/25 13:36:16;;;;;;;2.80;2.20;;;;;;;;;;5082988;28;20059;-58
2021/12/25 13:39:02;;;;;;;3.42;2.00;;;;;;;;;;5083962;28;20032;-58
2021/12/25 13:41:42;;;;;;;2.95;2.00;;;;;;;;;;5084125;28;20405;-58
2021/12/25 13:44:08;;;;;;;2.90;2.13;;;;;;;;;;5083737;28;20039;-58
2021/12/25 13:46:42;;;;;;;2.45;1.98;;;;;;;;;;5084000;28;20402;-58
2021/12/25 13:49:25;;;;;;;2.42;1.75;;;;;;;;;;5084766;28;20074;-57
2021/12/25 13:51:51;;;;;;;2.10;1.55;;;;;;;;;;5085252;28;20020;-58
2021/12/25 13:54:18;;;;;;;2.55;1.83;;;;;;;;;;5082098;28;20031;-57
2021/12/25 13:56:47;;;;;;;2.88;1.92;;;;;;;;;;5088117;28;20034;-58
2021/12/25 13:59:13;;;;;;;1.88;1.58;;;;;;;;;;5088763;28;20056;-58
2021/12/25 14:01:40;;;;;;;1.65;1.45;;;;;;;;;;5088948;28;20114;-58
2021/12/25 14:04:10;;;;;;;1.55;1.42;;;;;;;;;;5088209;28;20027;-58
2021/12/25 14:06:37;;;;;;;3.28;1.80;;;;;;;;;;5090336;28;20039;-57
2021/12/25 14:09:04;;;;;;;2.30;1.73;;;;;;;;;;5086540;28;20024;-58
2021/12/25 14:11:30;;;;;;;2.33;1.73;;;;;;;;;;5088414;28;20093;-58
2021/12/25 14:13:56;;;;;;;2.58;1.70;;;;;;;;;;5087565;28;20040;-58
2021/12/25 14:16:23;;;;;;;2.53;1.75;;;;;;;;;;5094274;28;20447;-59
2021/12/25 14:18:49;;;;;;;2.63;1.80;;;;;;;;;;5089238;28;20027;-59
2021/12/25 14:21:19;;;;;;;2.10;1.80;;;;;;;;;;5086567;28;20073;-58
2021/12/25 14:23:46;;;;;;;2.83;1.90;;;;;;;;;;5087781;28;20032;-59
2021/12/25 14:26:19;;;;;;;2.97;2.08;;;;;;;;;;5088358;28;20127;-59
2021/12/25 14:28:45;;;;;;;2.45;2.10;;;;;;;;;;5089977;28;20069;-58
2021/12/25 14:31:12;;;;;;;3.00;2.08;;;;;;;;;;5091778;28;20111;-59
2021/12/25 14:33:40;;;;;;;1.85;1.50;;;;;;;;;;5088815;28;20051;-58
2021/12/25 14:36:11;;;;;;;2.05;1.65;;;;;;;;;;5087904;28;20032;-58
2021/12/25 14:38:38;;;;;;;1.60;1.50;;;;;;;;;;5092344;28;20023;-58
2021/12/25 14:41:05;;;;;;;2.28;1.77;;;;;;;;;;5095716;28;20754;-58
2021/12/25 14:43:32;;;;;;;1.90;1.67;;;;;;;;;;5092147;28;20039;-58
2021/12/25 14:45:59;;;;;;;2.67;1.33;;;;;;;;;;5087590;28;20089;-59
2021/12/25 14:48:27;;;;;;;1.98;1.67;;;;;;;;;;5098285;28;20115;-58
2021/12/25 14:50:57;;;;;;;1.48;1.35;;;;;;;;;;5095243;28;20035;-59
2021/12/25 14:53:24;;;;;;;1.67;1.40;;;;;;;;;;5087372;28;20031;-59
2021/12/25 14:56:11;;;;;;;1.42;1.25;;;;;;;;;;5088060;28;20444;-58
2021/12/25 14:58:37;;;;;;;1.75;1.30;;;;;;;;;;5085337;28;20032;-58
2021/12/25 15:01:03;;;;;;;1.73;1.35;;;;;;;;;;5086537;28;20051;-58
2021/12/25 15:03:29;;;;;;;2.28;1.45;;;;;;;;;;5087975;28;20394;-58
2021/12/25 15:05:56;;;;;;;2.63;1.50;;;;;;;;;;5087518;28;20039;-59
2021/12/25 15:08:24;;;;;;;2.65;1.60;;;;;;;;;;5086814;28;20081;-58
2021/12/25 15:10:51;;;;;;;2.90;1.80;;;;;;;;;;5080472;28;20028;-58
2021/12/25 15:13:18;;;;;;;3.25;2.22;;;;;;;;;;5087518;28;20430;-57
2021/12/25 15:15:49;;;;;;;2.45;1.67;;;;;;;;;;5087775;28;20148;-57
2021/12/25 15:18:28;;;;;;;3.30;1.95;;;;;;;;;;5087590;28;20036;-59
2021/12/25 15:21:29;;;;;;;3.40;2.25;;;;;;;;;;5091274;28;20106;-59
2021/12/25 15:24:16;;;;;;;4.03;2.28;;;;;;;;;;5006099;28;20041;-59
2021/12/25 15:27:02;;;;;;;5.07;2.45;;;;;;;;;;5086780;28;20048;-59
2021/12/25 15:29:33;;;;;;;4.55;2.58;;;;;;;;;;5103421;28;20028;-59
2021/12/25 15:32:01;;;;;;;3.20;2.30;;;;;;;;;;5104181;28;20104;-58
2021/12/25 15:34:27;;;;;;;3.38;2.30;;;;;;;;;;5093109;28;20022;-58
2021/12/25 15:36:53;;;;;;;3.63;2.63;;;;;;;;;;5087687;28;20062;-59
2021/12/25 15:39:21;;;;;;;2.55;1.95;;;;;;;;;;5087951;28;20115;-59
2021/12/25 15:41:48;;;;;;;3.60;2.67;;;;;;;;;;5086821;28;20525;-58
2021/12/25 15:44:16;;;;;;;3.58;2.65;;;;;;;;;;5088628;28;20068;-60
2021/12/25 15:46:42;;;;;;;3.72;2.63;;;;;;;;;;5094651;28;20058;-60
2021/12/25 15:49:08;;;;;;;3.65;2.85;;;;;;;;;;5087280;28;20027;-60
2021/12/25 15:51:35;;;;;;;5.72;3.50;;;;;;;;;;5071885;28;20407;-59
2021/12/25 15:54:01;;;;;;;4.43;3.03;;;;;;;;;;5067228;28;20055;-59
2021/12/25 15:56:27;;;;;;;4.93;3.05;;;;;;;;;;5082696;28;20028;-58
2021/12/25 15:58:54;;;;;;;3.63;2.65;;;;;;;;;;5086064;28;20031;-58
2021/12/25 16:01:20;;;;;;;5.68;3.00;;;;;;;;;;5087505;28;20065;-58
2021/12/25 16:03:47;;;;;;;5.00;3.25;;;;;;;;;;5087036;28;20506;-58
2021/12/25 16:06:13;;;;;;;4.78;2.83;;;;;;;;;;5103069;28;20062;-59
2021/12/25 16:08:39;;;;;;;3.83;2.70;;;;;;;;;;5086413;28;20024;-59
2021/12/25 16:11:07;;;;;;;4.97;3.30;;;;;;;;;;5086171;28;20024;-59
2021/12/25 16:13:33;;;;;;;4.28;3.08;;;;;;;;;;5085708;28;20441;-59